sensor_id;sensor_type;location;lat;lon;timestamp;temperature;humidity
19930;DHT22;10127;47.780;9.606;2023-03-14T00:01:34;11.40;99.90
19930;DHT22;10127;47.780;9.606;2023-03-14T00:03:59;11.10;99.90
19930;DHT22;10127;47.780;9.606;2023-03-14T00:06:25;11.10;99.90
19930;DHT22;10127;47.780;9.606;2023-03-14T00:08:51;11.10;99.90
19930;DHT22;10127;47.780;9.606;2023-03-14T00:11:21;10.90;99.90
19930;DHT22;10127;47.780;9.606;2023-03-14T00:13:50;10.70;99.90
19930;DHT22;10127;47.780;9.606;2023-03-14T00:16:16;10.60;99.90
19930;DHT22;10127;47.780;9.606;2023-03-14T00:18:42;10.30;99.90
19930;DHT22;10127;47.780;9.606;2023-03-14T00:21:09;11.00;99.90
19930;DHT22;10127;47.780;9.606;2023-03-14T00:23:37;11.20;99.90
19930;DHT22;10127;47.780;9.606;2023-03-14T00:26:06;10.80;99.90
19930;DHT22;10127;47.780;9.606;2023-03-14T00:28:32;10.70;99.90
19930;DHT22;10127;47.780;9.606;2023-03-14T00:30:58;10.60;99.90
19930;DHT22;10127;47.780;9.606;2023-03-14T00:33:24;10.50;99.90
19930;DHT22;10127;47.780;9.606;2023-03-14T00:35:54;10.40;99.90
19930;DHT22;10127;47.780;9.606;2023-03-14T00:38:20;10.30;99.90
19930;DHT22;10127;47.780;9.606;2023-03-14T00:40:46;10.50;99.90
19930;DHT22;10127;47.780;9.606;2023-03-14T00:43:12;10.50;99.90
19930;DHT22;10127;47.780;9.606;2023-03-14T00:45:37;10.20;99.90
19930;DHT22;10127;47.780;9.606;2023-03-14T00:48:03;10.10;99.90
19930;DHT22;10127;47.780;9.606;2023-03-14T00:50:28;10.10;99.90
19930;DHT22;10127;47.780;9.606;2023-03-14T00:52:54;10.30;99.90
19930;DHT22;10127;47.780;9.606;2023-03-14T00:55:19;10.30;99.90
19930;DHT22;10127;47.780;9.606;2023-03-14T00:57:45;10.30;99.90
19930;DHT22;10127;47.780;9.606;2023-03-14T01:00:11;10.40;99.90
19930;DHT22;10127;47.780;9.606;2023-03-14T01:02:38;10.40;99.90
19930;DHT22;10127;47.780;9.606;2023-03-14T01:05:04;10.20;99.90
19930;DHT22;10127;47.780;9.606;2023-03-14T01:07:29;10.30;99.90
19930;DHT22;10127;47.780;9.606;2023-03-14T01:09:55;10.10;99.90
19930;DHT22;10127;47.780;9.606;2023-03-14T01:12:20;10.10;99.90
19930;DHT22;10127;47.780;9.606;2023-03-14T01:14:46;10.00;99.90
19930;DHT22;10127;47.780;9.606;2023-03-14T01:17:11;10.10;99.90
19930;DHT22;10127;47.780;9.606;2023-03-14T01:19:37;10.10;99.90
19930;DHT22;10127;47.780;9.606;2023-03-14T01:22:03;10.10;99.90
19930;DHT22;10127;47.780;9.606;2023-03-14T01:24:29;10.00;99.90
19930;DHT22;10127;47.780;9.606;2023-03-14T01:26:54;10.00;99.90
19930;DHT22;10127;47.780;9.606;2023-03-14T01:29:20;10.00;99.90
19930;DHT22;10127;47.780;9.606;2023-03-14T01:31:45;9.90;99.90
19930;DHT22;10127;47.780;9.606;2023-03-14T01:34:11;9.90;99.90
19930;DHT22;10127;47.780;9.606;2023-03-14T01:36:37;9.90;99.90
19930;DHT22;10127;47.780;9.606;2023-03-14T01:39:02;9.80;99.90
19930;DHT22;10127;47.780;9.606;2023-03-14T01:41:28;9.70;99.90
19930;DHT22;10127;47.780;9.606;2023-03-14T01:43:54;9.60;99.90
19930;DHT22;10127;47.780;9.606;2023-03-14T01:46:36;9.50;99.90
19930;DHT22;10127;47.780;9.606;2023-03-14T01:49:22;9.50;99.90
19930;DHT22;10127;47.780;9.606;2023-03-14T01:51:51;9.40;99.90
19930;DHT22;10127;47.780;9.606;2023-03-14T01:54:49;9.40;99.90
19930;DHT22;10127;47.780;9.606;2023-03-14T02:00:00;9.30;99.90
19930;DHT22;10127;47.780;9.606;2023-03-14T02:02:28;9.20;99.90
19930;DHT22;10127;47.780;9.606;2023-03-14T02:04:55;9.20;99.90
19930;DHT22;10127;47.780;9.606;2023-03-14T02:07:33;9.20;99.90
19930;DHT22;10127;47.780;9.606;2023-03-14T02:10:02;9.20;99.90
19930;DHT22;10127;47.780;9.606;2023-03-14T02:12:28;9.30;99.90
19930;DHT22;10127;47.780;9.606;2023-03-14T02:14:54;9.30;99.90
19930;DHT22;10127;47.780;9.606;2023-03-14T02:17:20;9.40;99.90
19930;DHT22;10127;47.780;9.606;2023-03-14T02:22:41;9.40;99.90
19930;DHT22;10127;47.780;9.606;2023-03-14T02:28:09;9.40;99.90
19930;DHT22;10127;47.780;9.606;2023-03-14T02:30:35;9.40;99.90
19930;DHT22;10127;47.780;9.606;2023-03-14T02:33:12;9.40;99.90
19930;DHT22;10127;47.780;9.606;2023-03-14T02:35:52;9.50;99.90
19930;DHT22;10127;47.780;9.606;2023-03-14T02:41:07;9.60;99.90
19930;DHT22;10127;47.780;9.606;2023-03-14T02:43:32;9.60;99.90
19930;DHT22;10127;47.780;9.606;2023-03-14T02:45:58;9.60;99.90
19930;DHT22;10127;47.780;9.606;2023-03-14T02:48:31;9.70;99.90
19930;DHT22;10127;47.780;9.606;2023-03-14T03:11:33;9.50;99.90
19930;DHT22;10127;47.780;9.606;2023-03-14T03:13:58;9.50;99.90
19930;DHT22;10127;47.780;9.606;2023-03-14T03:16:24;9.50;99.90
19930;DHT22;10127;47.780;9.606;2023-03-14T03:18:49;9.50;99.90
19930;DHT22;10127;47.780;9.606;2023-03-14T03:21:15;9.40;99.90
19930;DHT22;10127;47.780;9.606;2023-03-14T03:23:41;9.40;99.90
19930;DHT22;10127;47.780;9.606;2023-03-14T03:26:09;9.40;99.90
19930;DHT22;10127;47.780;9.606;2023-03-14T03:28:43;9.30;99.90
19930;DHT22;10127;47.780;9.606;2023-03-14T03:31:10;9.30;99.90
19930;DHT22;10127;47.780;9.606;2023-03-14T03:33:42;9.30;99.90
19930;DHT22;10127;47.780;9.606;2023-03-14T03:36:09;9.30;99.90
19930;DHT22;10127;47.780;9.606;2023-03-14T03:38:35;9.30;99.90
19930;DHT22;10127;47.780;9.606;2023-03-14T03:41:07;9.30;99.90
19930;DHT22;10127;47.780;9.606;2023-03-14T03:43:33;9.20;99.90
19930;DHT22;10127;47.780;9.606;2023-03-14T03:46:03;9.20;99.90
19930;DHT22;10127;47.780;9.606;2023-03-14T03:48:29;9.20;99.90
19930;DHT22;10127;47.780;9.606;2023-03-14T03:50:54;9.20;99.90
19930;DHT22;10127;47.780;9.606;2023-03-14T03:53:20;9.20;99.90
19930;DHT22;10127;47.780;9.606;2023-03-14T03:55:45;9.20;99.90
19930;DHT22;10127;47.780;9.606;2023-03-14T03:58:11;9.20;99.90
19930;DHT22;10127;47.780;9.606;2023-03-14T04:00:37;9.20;99.90
19930;DHT22;10127;47.780;9.606;2023-03-14T04:03:02;9.20;99.90
19930;DHT22;10127;47.780;9.606;2023-03-14T04:05:28;9.20;99.90
19930;DHT22;10127;47.780;9.606;2023-03-14T04:07:53;9.20;99.90
19930;DHT22;10127;47.780;9.606;2023-03-14T04:10:19;9.20;99.90
19930;DHT22;10127;47.780;9.606;2023-03-14T04:12:45;9.20;99.90
19930;DHT22;10127;47.780;9.606;2023-03-14T04:15:10;9.30;99.90
19930;DHT22;10127;47.780;9.606;2023-03-14T04:17:36;9.20;99.90
19930;DHT22;10127;47.780;9.606;2023-03-14T04:20:02;9.20;99.90
19930;DHT22;10127;47.780;9.606;2023-03-14T04:22:28;9.20;99.90
19930;DHT22;10127;47.780;9.606;2023-03-14T04:24:54;9.20;99.90
19930;DHT22;10127;47.780;9.606;2023-03-14T04:27:26;9.30;99.90
19930;DHT22;10127;47.780;9.606;2023-03-14T04:29:52;9.30;99.90
19930;DHT22;10127;47.780;9.606;2023-03-14T04:32:17;9.30;99.90
19930;DHT22;10127;47.780;9.606;2023-03-14T04:34:49;9.30;99.90
19930;DHT22;10127;47.780;9.606;2023-03-14T04:37:15;9.30;99.90
19930;DHT22;10127;47.780;9.606;2023-03-14T04:39:41;9.30;99.90
19930;DHT22;10127;47.780;9.606;2023-03-14T04:42:07;9.30;99.90
19930;DHT22;10127;47.780;9.606;2023-03-14T04:44:33;9.40;99.90
19930;DHT22;10127;47.780;9.606;2023-03-14T04:46:58;9.40;99.90
19930;DHT22;10127;47.780;9.606;2023-03-14T04:49:24;9.40;99.90
19930;DHT22;10127;47.780;9.606;2023-03-14T04:51:50;9.30;99.90
19930;DHT22;10127;47.780;9.606;2023-03-14T04:54:18;9.30;99.90
19930;DHT22;10127;47.780;9.606;2023-03-14T04:56:44;9.30;99.90
19930;DHT22;10127;47.780;9.606;2023-03-14T04:59:09;9.20;99.90
19930;DHT22;10127;47.780;9.606;2023-03-14T05:01:35;9.20;99.90
19930;DHT22;10127;47.780;9.606;2023-03-14T05:04:01;9.30;99.90
19930;DHT22;10127;47.780;9.606;2023-03-14T05:06:27;9.30;99.90
19930;DHT22;10127;47.780;9.606;2023-03-14T05:08:52;9.40;99.90
19930;DHT22;10127;47.780;9.606;2023-03-14T05:11:18;9.30;99.90
19930;DHT22;10127;47.780;9.606;2023-03-14T05:13:43;9.30;99.90
19930;DHT22;10127;47.780;9.606;2023-03-14T05:16:10;9.20;99.90
19930;DHT22;10127;47.780;9.606;2023-03-14T05:18:36;9.20;99.90
19930;DHT22;10127;47.780;9.606;2023-03-14T05:21:03;9.20;99.90
19930;DHT22;10127;47.780;9.606;2023-03-14T05:23:28;9.20;99.90
19930;DHT22;10127;47.780;9.606;2023-03-14T05:25:54;9.20;99.90
19930;DHT22;10127;47.780;9.606;2023-03-14T05:28:20;9.30;99.90
19930;DHT22;10127;47.780;9.606;2023-03-14T05:30:45;9.30;99.90
19930;DHT22;10127;47.780;9.606;2023-03-14T05:33:11;9.30;99.90
19930;DHT22;10127;47.780;9.606;2023-03-14T05:35:37;9.30;99.90
19930;DHT22;10127;47.780;9.606;2023-03-14T05:38:10;9.20;99.90
19930;DHT22;10127;47.780;9.606;2023-03-14T05:40:35;9.30;99.90
19930;DHT22;10127;47.780;9.606;2023-03-14T05:43:01;9.30;99.90
19930;DHT22;10127;47.780;9.606;2023-03-14T05:45:26;9.20;99.90
19930;DHT22;10127;47.780;9.606;2023-03-14T05:47:52;9.20;99.90
19930;DHT22;10127;47.780;9.606;2023-03-14T05:50:17;9.20;99.90
19930;DHT22;10127;47.780;9.606;2023-03-14T05:52:43;9.10;99.90
19930;DHT22;10127;47.780;9.606;2023-03-14T05:55:09;9.10;99.90
19930;DHT22;10127;47.780;9.606;2023-03-14T05:57:35;9.10;99.90
19930;DHT22;10127;47.780;9.606;2023-03-14T06:00:00;9.10;99.90
19930;DHT22;10127;47.780;9.606;2023-03-14T06:02:26;9.10;99.90
19930;DHT22;10127;47.780;9.606;2023-03-14T06:04:52;9.10;99.90
19930;DHT22;10127;47.780;9.606;2023-03-14T06:07:18;9.10;99.90
19930;DHT22;10127;47.780;9.606;2023-03-14T06:09:43;9.10;99.90
19930;DHT22;10127;47.780;9.606;2023-03-14T06:12:09;9.20;99.90
19930;DHT22;10127;47.780;9.606;2023-03-14T06:14:34;9.20;99.90
19930;DHT22;10127;47.780;9.606;2023-03-14T06:17:00;9.20;99.90
19930;DHT22;10127;47.780;9.606;2023-03-14T06:19:26;9.20;99.90
19930;DHT22;10127;47.780;9.606;2023-03-14T06:21:52;9.20;99.90
19930;DHT22;10127;47.780;9.606;2023-03-14T06:24:18;9.30;99.90
19930;DHT22;10127;47.780;9.606;2023-03-14T06:26:43;9.40;99.90
19930;DHT22;10127;47.780;9.606;2023-03-14T06:29:09;9.40;99.90
19930;DHT22;10127;47.780;9.606;2023-03-14T06:31:35;9.40;99.90
19930;DHT22;10127;47.780;9.606;2023-03-14T06:34:01;9.40;99.90
19930;DHT22;10127;47.780;9.606;2023-03-14T06:36:26;9.40;99.90
19930;DHT22;10127;47.780;9.606;2023-03-14T06:38:52;9.40;99.90
19930;DHT22;10127;47.780;9.606;2023-03-14T06:41:18;9.40;99.90
19930;DHT22;10127;47.780;9.606;2023-03-14T06:43:43;9.50;99.90
19930;DHT22;10127;47.780;9.606;2023-03-14T06:46:09;9.50;99.90
19930;DHT22;10127;47.780;9.606;2023-03-14T06:48:35;9.60;99.90
19930;DHT22;10127;47.780;9.606;2023-03-14T06:51:00;9.50;99.90
19930;DHT22;10127;47.780;9.606;2023-03-14T06:53:26;9.50;99.90
19930;DHT22;10127;47.780;9.606;2023-03-14T06:55:51;9.50;99.90
19930;DHT22;10127;47.780;9.606;2023-03-14T06:58:17;9.60;99.90
19930;DHT22;10127;47.780;9.606;2023-03-14T07:00:42;9.50;99.90
19930;DHT22;10127;47.780;9.606;2023-03-14T07:03:09;9.40;99.90
19930;DHT22;10127;47.780;9.606;2023-03-14T07:05:35;9.40;99.90
19930;DHT22;10127;47.780;9.606;2023-03-14T07:08:01;9.40;99.90
19930;DHT22;10127;47.780;9.606;2023-03-14T07:10:26;9.40;99.90
19930;DHT22;10127;47.780;9.606;2023-03-14T07:12:52;9.50;99.90
19930;DHT22;10127;47.780;9.606;2023-03-14T07:15:19;9.60;99.90
19930;DHT22;10127;47.780;9.606;2023-03-14T07:17:45;9.70;99.90
19930;DHT22;10127;47.780;9.606;2023-03-14T07:20:13;9.90;99.90
19930;DHT22;10127;47.780;9.606;2023-03-14T07:22:39;10.00;99.90
19930;DHT22;10127;47.780;9.606;2023-03-14T07:25:05;10.10;99.90
19930;DHT22;10127;47.780;9.606;2023-03-14T07:27:31;10.10;99.90
19930;DHT22;10127;47.780;9.606;2023-03-14T07:29:56;10.30;99.90
19930;DHT22;10127;47.780;9.606;2023-03-14T07:32:22;10.10;99.90
19930;DHT22;10127;47.780;9.606;2023-03-14T07:34:48;10.20;99.90
19930;DHT22;10127;47.780;9.606;2023-03-14T07:37:13;10.20;99.90
19930;DHT22;10127;47.780;9.606;2023-03-14T07:39:39;10.20;99.90
19930;DHT22;10127;47.780;9.606;2023-03-14T07:42:05;10.30;99.90
19930;DHT22;10127;47.780;9.606;2023-03-14T07:44:31;10.20;99.90
19930;DHT22;10127;47.780;9.606;2023-03-14T07:46:56;10.20;99.90
19930;DHT22;10127;47.780;9.606;2023-03-14T07:49:22;10.20;99.90
19930;DHT22;10127;47.780;9.606;2023-03-14T07:51:48;10.30;99.90
19930;DHT22;10127;47.780;9.606;2023-03-14T07:54:14;10.20;99.90
19930;DHT22;10127;47.780;9.606;2023-03-14T07:56:40;10.30;99.90
19930;DHT22;10127;47.780;9.606;2023-03-14T07:59:05;10.30;99.90
19930;DHT22;10127;47.780;9.606;2023-03-14T08:01:31;10.40;99.90
19930;DHT22;10127;47.780;9.606;2023-03-14T08:03:57;10.40;99.90
19930;DHT22;10127;47.780;9.606;2023-03-14T08:06:22;10.40;99.90
19930;DHT22;10127;47.780;9.606;2023-03-14T08:08:48;10.50;99.90
19930;DHT22;10127;47.780;9.606;2023-03-14T08:11:13;10.60;99.90
19930;DHT22;10127;47.780;9.606;2023-03-14T08:13:39;10.60;99.90
19930;DHT22;10127;47.780;9.606;2023-03-14T08:16:05;10.60;99.90
19930;DHT22;10127;47.780;9.606;2023-03-14T08:18:31;10.70;99.90
19930;DHT22;10127;47.780;9.606;2023-03-14T08:20:57;10.70;99.90
19930;DHT22;10127;47.780;9.606;2023-03-14T08:23:23;10.80;99.90
19930;DHT22;10127;47.780;9.606;2023-03-14T08:25:50;11.00;99.90
19930;DHT22;10127;47.780;9.606;2023-03-14T08:28:16;11.20;99.90
19930;DHT22;10127;47.780;9.606;2023-03-14T08:30:42;11.20;99.90
19930;DHT22;10127;47.780;9.606;2023-03-14T08:33:08;11.20;99.90
19930;DHT22;10127;47.780;9.606;2023-03-14T08:35:33;11.20;99.90
19930;DHT22;10127;47.780;9.606;2023-03-14T08:37:59;10.90;99.90
19930;DHT22;10127;47.780;9.606;2023-03-14T08:40:24;10.90;99.90
19930;DHT22;10127;47.780;9.606;2023-03-14T08:42:50;10.90;99.90
19930;DHT22;10127;47.780;9.606;2023-03-14T08:45:16;11.00;99.90
19930;DHT22;10127;47.780;9.606;2023-03-14T08:47:43;11.00;99.90
19930;DHT22;10127;47.780;9.606;2023-03-14T08:50:11;11.30;99.90
19930;DHT22;10127;47.780;9.606;2023-03-14T08:52:37;11.30;99.90
19930;DHT22;10127;47.780;9.606;2023-03-14T08:55:09;11.70;99.90
19930;DHT22;10127;47.780;9.606;2023-03-14T08:57:35;11.90;99.90
19930;DHT22;10127;47.780;9.606;2023-03-14T09:00:03;12.00;99.90
19930;DHT22;10127;47.780;9.606;2023-03-14T09:02:31;12.10;99.90
19930;DHT22;10127;47.780;9.606;2023-03-14T09:04:57;12.20;99.90
19930;DHT22;10127;47.780;9.606;2023-03-14T09:07:22;12.20;99.90
19930;DHT22;10127;47.780;9.606;2023-03-14T09:09:48;12.10;99.90
19930;DHT22;10127;47.780;9.606;2023-03-14T09:12:13;12.20;99.90
19930;DHT22;10127;47.780;9.606;2023-03-14T09:14:39;12.40;99.90
19930;DHT22;10127;47.780;9.606;2023-03-14T09:17:05;12.40;99.90
19930;DHT22;10127;47.780;9.606;2023-03-14T09:19:30;12.40;99.90
19930;DHT22;10127;47.780;9.606;2023-03-14T09:21:56;12.30;99.90
19930;DHT22;10127;47.780;9.606;2023-03-14T09:24:22;12.30;99.90
19930;DHT22;10127;47.780;9.606;2023-03-14T09:26:47;12.30;99.90
19930;DHT22;10127;47.780;9.606;2023-03-14T09:29:13;12.40;99.90
19930;DHT22;10127;47.780;9.606;2023-03-14T09:31:38;12.60;99.90
19930;DHT22;10127;47.780;9.606;2023-03-14T09:34:04;12.60;99.90
19930;DHT22;10127;47.780;9.606;2023-03-14T09:36:30;12.70;99.90
19930;DHT22;10127;47.780;9.606;2023-03-14T09:38:56;12.70;99.90
19930;DHT22;10127;47.780;9.606;2023-03-14T09:41:29;12.70;99.90
19930;DHT22;10127;47.780;9.606;2023-03-14T09:44:11;12.50;99.90
19930;DHT22;10127;47.780;9.606;2023-03-14T09:46:41;12.60;99.90
19930;DHT22;10127;47.780;9.606;2023-03-14T09:49:20;12.80;99.90
19930;DHT22;10127;47.780;9.606;2023-03-14T09:57:37;13.10;99.90
19930;DHT22;10127;47.780;9.606;2023-03-14T10:00:25;13.30;99.90
19930;DHT22;10127;47.780;9.606;2023-03-14T10:03:19;13.40;99.90
19930;DHT22;10127;47.780;9.606;2023-03-14T10:05:46;13.60;99.90
19930;DHT22;10127;47.780;9.606;2023-03-14T10:08:13;13.70;99.90
19930;DHT22;10127;47.780;9.606;2023-03-14T10:10:40;13.60;99.90
19930;DHT22;10127;47.780;9.606;2023-03-14T10:13:26;13.60;99.90
19930;DHT22;10127;47.780;9.606;2023-03-14T10:16:02;13.40;99.90
19930;DHT22;10127;47.780;9.606;2023-03-14T10:18:30;13.20;99.90
19930;DHT22;10127;47.780;9.606;2023-03-14T10:21:06;13.00;99.90
19930;DHT22;10127;47.780;9.606;2023-03-14T10:23:33;13.00;99.90
19930;DHT22;10127;47.780;9.606;2023-03-14T10:28:34;12.90;99.90
19930;DHT22;10127;47.780;9.606;2023-03-14T10:31:02;13.00;99.90
19930;DHT22;10127;47.780;9.606;2023-03-14T10:33:31;13.10;99.90
19930;DHT22;10127;47.780;9.606;2023-03-14T10:36:00;13.10;99.90
19930;DHT22;10127;47.780;9.606;2023-03-14T10:38:32;13.10;99.90
19930;DHT22;10127;47.780;9.606;2023-03-14T10:40:59;13.10;99.90
19930;DHT22;10127;47.780;9.606;2023-03-14T10:43:37;13.10;99.90
19930;DHT22;10127;47.780;9.606;2023-03-14T10:46:15;13.00;99.90
19930;DHT22;10127;47.780;9.606;2023-03-14T10:48:42;13.00;99.90
19930;DHT22;10127;47.780;9.606;2023-03-14T10:53:56;13.00;99.90
19930;DHT22;10127;47.780;9.606;2023-03-14T10:56:24;12.90;99.90
19930;DHT22;10127;47.780;9.606;2023-03-14T10:58:53;12.80;99.90
19930;DHT22;10127;47.780;9.606;2023-03-14T11:10:32;11.90;99.90
19930;DHT22;10127;47.780;9.606;2023-03-14T11:21:11;11.70;99.90
19930;DHT22;10127;47.780;9.606;2023-03-14T11:23:54;11.70;99.90
19930;DHT22;10127;47.780;9.606;2023-03-14T11:26:36;11.40;99.90
19930;DHT22;10127;47.780;9.606;2023-03-14T11:29:41;11.10;99.90
19930;DHT22;10127;47.780;9.606;2023-03-14T11:32:20;10.90;99.90
19930;DHT22;10127;47.780;9.606;2023-03-14T11:37:34;10.70;99.90
19930;DHT22;10127;47.780;9.606;2023-03-14T11:42:36;10.50;99.90
19930;DHT22;10127;47.780;9.606;2023-03-14T11:45:02;10.30;99.90
19930;DHT22;10127;47.780;9.606;2023-03-14T11:47:38;10.60;99.90
19930;DHT22;10127;47.780;9.606;2023-03-14T11:50:16;10.60;99.90
19930;DHT22;10127;47.780;9.606;2023-03-14T11:53:04;10.40;99.90
19930;DHT22;10127;47.780;9.606;2023-03-14T11:55:34;10.10;99.90
19930;DHT22;10127;47.780;9.606;2023-03-14T11:58:17;10.00;99.90
19930;DHT22;10127;47.780;9.606;2023-03-14T12:00:46;10.00;99.90
19930;DHT22;10127;47.780;9.606;2023-03-14T12:06:25;9.80;99.90
19930;DHT22;10127;47.780;9.606;2023-03-14T12:09:03;9.80;99.90
19930;DHT22;10127;47.780;9.606;2023-03-14T12:11:49;9.80;99.90
19930;DHT22;10127;47.780;9.606;2023-03-14T12:19:32;9.50;99.90
19930;DHT22;10127;47.780;9.606;2023-03-14T12:22:46;9.40;99.90
19930;DHT22;10127;47.780;9.606;2023-03-14T12:24:51;8.90;99.90
19930;DHT22;10127;47.780;9.606;2023-03-14T12:27:40;8.90;99.90
19930;DHT22;10127;47.780;9.606;2023-03-14T12:32:41;8.80;99.90
19930;DHT22;10127;47.780;9.606;2023-03-14T12:35:35;8.80;99.90
19930;DHT22;10127;47.780;9.606;2023-03-14T12:38:04;8.60;99.90
19930;DHT22;10127;47.780;9.606;2023-03-14T12:40:33;8.50;99.90
19930;DHT22;10127;47.780;9.606;2023-03-14T12:43:02;8.50;99.90
19930;DHT22;10127;47.780;9.606;2023-03-14T12:45:33;8.30;99.90
19930;DHT22;10127;47.780;9.606;2023-03-14T12:48:07;8.30;99.90
19930;DHT22;10127;47.780;9.606;2023-03-14T12:51:00;8.30;99.90
19930;DHT22;10127;47.780;9.606;2023-03-14T12:53:36;8.30;99.90
19930;DHT22;10127;47.780;9.606;2023-03-14T13:01:04;8.20;99.90
19930;DHT22;10127;47.780;9.606;2023-03-14T13:03:42;8.20;99.90
19930;DHT22;10127;47.780;9.606;2023-03-14T13:06:09;8.20;99.90
19930;DHT22;10127;47.780;9.606;2023-03-14T13:11:15;8.50;99.90
19930;DHT22;10127;47.780;9.606;2023-03-14T13:13:48;8.40;99.90
19930;DHT22;10127;47.780;9.606;2023-03-14T13:16:19;8.40;99.90
19930;DHT22;10127;47.780;9.606;2023-03-14T13:18:46;8.40;99.90
19930;DHT22;10127;47.780;9.606;2023-03-14T13:21:16;8.40;99.90
19930;DHT22;10127;47.780;9.606;2023-03-14T13:26:20;8.60;99.90
19930;DHT22;10127;47.780;9.606;2023-03-14T13:28:46;8.90;99.90
19930;DHT22;10127;47.780;9.606;2023-03-14T13:31:23;8.80;99.90
19930;DHT22;10127;47.780;9.606;2023-03-14T13:34:00;8.90;99.90
19930;DHT22;10127;47.780;9.606;2023-03-14T13:36:26;9.00;99.90
19930;DHT22;10127;47.780;9.606;2023-03-14T13:39:00;9.10;99.90
19930;DHT22;10127;47.780;9.606;2023-03-14T13:41:27;9.20;99.90
19930;DHT22;10127;47.780;9.606;2023-03-14T13:44:06;9.20;99.90
19930;DHT22;10127;47.780;9.606;2023-03-14T13:46:34;8.90;99.90
19930;DHT22;10127;47.780;9.606;2023-03-14T13:49:06;8.60;99.90
19930;DHT22;10127;47.780;9.606;2023-03-14T13:51:32;8.00;99.90
19930;DHT22;10127;47.780;9.606;2023-03-14T13:53:59;7.70;99.90
19930;DHT22;10127;47.780;9.606;2023-03-14T13:56:30;7.60;99.90
19930;DHT22;10127;47.780;9.606;2023-03-14T13:58:56;7.30;99.90
19930;DHT22;10127;47.780;9.606;2023-03-14T14:01:27;7.10;99.90
19930;DHT22;10127;47.780;9.606;2023-03-14T14:03:57;7.00;99.90
19930;DHT22;10127;47.780;9.606;2023-03-14T14:08:58;7.00;99.90
19930;DHT22;10127;47.780;9.606;2023-03-14T14:11:59;7.20;99.90
19930;DHT22;10127;47.780;9.606;2023-03-14T14:16:58;7.00;99.90
19930;DHT22;10127;47.780;9.606;2023-03-14T14:19:28;7.40;99.90
19930;DHT22;10127;47.780;9.606;2023-03-14T14:21:55;7.80;99.90
19930;DHT22;10127;47.780;9.606;2023-03-14T14:24:24;8.20;99.90
19930;DHT22;10127;47.780;9.606;2023-03-14T14:26:54;8.60;99.90
19930;DHT22;10127;47.780;9.606;2023-03-14T14:29:33;9.00;99.90
19930;DHT22;10127;47.780;9.606;2023-03-14T14:32:01;8.60;99.90
19930;DHT22;10127;47.780;9.606;2023-03-14T14:34:27;8.60;99.90
19930;DHT22;10127;47.780;9.606;2023-03-14T14:36:53;9.00;99.90
19930;DHT22;10127;47.780;9.606;2023-03-14T14:39:28;9.10;99.90
19930;DHT22;10127;47.780;9.606;2023-03-14T14:41:56;9.10;99.90
19930;DHT22;10127;47.780;9.606;2023-03-14T14:44:37;9.50;99.90
19930;DHT22;10127;47.780;9.606;2023-03-14T14:47:03;9.90;99.90
19930;DHT22;10127;47.780;9.606;2023-03-14T14:49:32;10.20;99.90
19930;DHT22;10127;47.780;9.606;2023-03-14T14:52:03;10.10;99.90
19930;DHT22;10127;47.780;9.606;2023-03-14T14:57:31;10.30;99.90
19930;DHT22;10127;47.780;9.606;2023-03-14T15:00:08;10.30;99.90
19930;DHT22;10127;47.780;9.606;2023-03-14T15:02:45;10.00;99.90
19930;DHT22;10127;47.780;9.606;2023-03-14T15:05:24;9.80;99.90
19930;DHT22;10127;47.780;9.606;2023-03-14T15:07:50;9.50;99.90
19930;DHT22;10127;47.780;9.606;2023-03-14T15:10:18;9.40;99.90
19930;DHT22;10127;47.780;9.606;2023-03-14T15:12:44;9.40;99.90
19930;DHT22;10127;47.780;9.606;2023-03-14T15:15:11;9.20;99.90
19930;DHT22;10127;47.780;9.606;2023-03-14T15:17:38;9.10;99.90
19930;DHT22;10127;47.780;9.606;2023-03-14T15:20:05;9.20;99.90
19930;DHT22;10127;47.780;9.606;2023-03-14T15:22:31;9.20;99.90
19930;DHT22;10127;47.780;9.606;2023-03-14T15:24:57;9.30;99.90
19930;DHT22;10127;47.780;9.606;2023-03-14T15:27:23;9.40;99.90
19930;DHT22;10127;47.780;9.606;2023-03-14T15:29:48;9.40;99.90
19930;DHT22;10127;47.780;9.606;2023-03-14T15:32:16;9.40;99.90
19930;DHT22;10127;47.780;9.606;2023-03-14T15:34:42;9.50;99.90
19930;DHT22;10127;47.780;9.606;2023-03-14T15:37:16;9.50;99.90
19930;DHT22;10127;47.780;9.606;2023-03-14T15:39:44;9.50;99.90
19930;DHT22;10127;47.780;9.606;2023-03-14T15:42:10;9.50;99.90
19930;DHT22;10127;47.780;9.606;2023-03-14T15:44:36;9.50;99.90
19930;DHT22;10127;47.780;9.606;2023-03-14T15:47:02;9.60;99.90
19930;DHT22;10127;47.780;9.606;2023-03-14T15:49:28;9.60;99.90
19930;DHT22;10127;47.780;9.606;2023-03-14T15:51:54;9.50;99.90
19930;DHT22;10127;47.780;9.606;2023-03-14T15:54:20;9.60;99.90
19930;DHT22;10127;47.780;9.606;2023-03-14T15:56:45;9.80;99.90
19930;DHT22;10127;47.780;9.606;2023-03-14T15:59:11;9.80;99.90
19930;DHT22;10127;47.780;9.606;2023-03-14T16:01:37;9.80;99.90
19930;DHT22;10127;47.780;9.606;2023-03-14T16:04:03;9.80;99.90
19930;DHT22;10127;47.780;9.606;2023-03-14T16:06:28;9.70;99.90
19930;DHT22;10127;47.780;9.606;2023-03-14T16:08:56;9.70;99.90
19930;DHT22;10127;47.780;9.606;2023-03-14T16:11:22;9.70;99.90
19930;DHT22;10127;47.780;9.606;2023-03-14T16:13:47;9.70;99.90
19930;DHT22;10127;47.780;9.606;2023-03-14T16:16:13;9.60;99.90
19930;DHT22;10127;47.780;9.606;2023-03-14T16:18:45;9.60;99.90
19930;DHT22;10127;47.780;9.606;2023-03-14T16:21:14;9.40;99.90
19930;DHT22;10127;47.780;9.606;2023-03-14T16:23:40;9.30;99.90
19930;DHT22;10127;47.780;9.606;2023-03-14T16:26:07;9.40;99.90
19930;DHT22;10127;47.780;9.606;2023-03-14T16:28:33;9.40;99.90
19930;DHT22;10127;47.780;9.606;2023-03-14T16:31:11;9.50;99.90
19930;DHT22;10127;47.780;9.606;2023-03-14T16:33:38;9.40;99.90
19930;DHT22;10127;47.780;9.606;2023-03-14T16:36:05;9.60;99.90
19930;DHT22;10127;47.780;9.606;2023-03-14T16:38:33;9.70;99.90
19930;DHT22;10127;47.780;9.606;2023-03-14T16:41:03;9.60;99.90
19930;DHT22;10127;47.780;9.606;2023-03-14T16:43:29;9.60;99.90
19930;DHT22;10127;47.780;9.606;2023-03-14T16:45:59;9.60;99.90
19930;DHT22;10127;47.780;9.606;2023-03-14T16:48:26;9.50;99.90
19930;DHT22;10127;47.780;9.606;2023-03-14T16:50:52;9.50;99.90
19930;DHT22;10127;47.780;9.606;2023-03-14T16:53:18;9.50;99.90
19930;DHT22;10127;47.780;9.606;2023-03-14T16:55:44;9.40;99.90
19930;DHT22;10127;47.780;9.606;2023-03-14T16:58:10;9.20;99.90
19930;DHT22;10127;47.780;9.606;2023-03-14T17:00:36;9.10;99.90
19930;DHT22;10127;47.780;9.606;2023-03-14T17:03:02;8.90;99.90
19930;DHT22;10127;47.780;9.606;2023-03-14T17:05:28;8.80;99.90
19930;DHT22;10127;47.780;9.606;2023-03-14T17:07:53;8.90;99.90
19930;DHT22;10127;47.780;9.606;2023-03-14T17:10:19;8.90;99.90
19930;DHT22;10127;47.780;9.606;2023-03-14T17:12:45;8.90;99.90
19930;DHT22;10127;47.780;9.606;2023-03-14T17:15:11;8.80;99.90
19930;DHT22;10127;47.780;9.606;2023-03-14T17:17:37;8.70;99.90
19930;DHT22;10127;47.780;9.606;2023-03-14T17:20:04;8.70;99.90
19930;DHT22;10127;47.780;9.606;2023-03-14T17:22:30;8.70;99.90